ESGR/KVB METAR and TAF weather

Enter ICAO airport designator
Station Type Date Time Source
ESGR METAR 2018/12/10 23:50 UTC NOAA

ESGR 102350Z AUTO 34009KT 9999 DZ OVC008/// 02/01 Q1007 REUP


Station Type Date Time Source
ESGR Decoded METAR 2018/12/10 23:50 UTC NOAA

Skovde Flygplats, Sweden (ESGR) 58-27N 013-58E 105M
Dec 10, 2018 - 06:50 PM EST / 2018.12.10 2350 UTC
Wind: from the NNW (340 degrees) at 10 MPH (9 KT):0
Visibility: greater than 7 mile(s):0
Sky conditions: overcast
Weather: drizzle
Temperature: 35 F (2 C)
Windchill: 26 F (-3 C):1
Dew Point: 33 F (1 C)
Relative Humidity: 93%
Pressure (altimeter): 29.74 in. Hg (1007 hPa)
ob: ESGR 102350Z AUTO 34009KT 9999 DZ OVC008/// 02/01 Q1007 REUP
cycle: 0

Station Type Date Time Source
ESGR TAF 2009/06/28 04:50 UTC NOAA

METAR ESGR 280450Z AUTO VRB02KT 9999NDV NCD 17/12 Q1020


Example: see airport list